createdAt,value
2022-09-26T00:02:22.862Z,21.20
2022-09-26T00:07:24.893Z,17.30
2022-09-26T00:12:26.564Z,18.90
2022-09-26T00:17:28.441Z,15.50
2022-09-26T00:22:30.113Z,17.90
2022-09-26T00:27:32.093Z,17.80
2022-09-26T00:32:33.765Z,17.70
2022-09-26T00:37:35.742Z,19.20
2022-09-26T00:42:37.619Z,18.00
2022-09-26T00:47:49.121Z,23.40
2022-09-26T00:52:58.370Z,27.60
2022-09-26T00:58:06.596Z,30.00
2022-09-26T01:03:08.370Z,28.70
2022-09-26T01:08:12.914Z,32.00
2022-09-26T01:13:14.582Z,29.50
2022-09-26T01:18:16.460Z,28.00
2022-09-26T01:23:37.489Z,25.00
2022-09-26T01:29:24.727Z,25.00
2022-09-26T01:34:37.560Z,21.60
2022-09-26T01:40:02.578Z,19.60
2022-09-26T01:45:21.867Z,20.60
2022-09-26T01:51:01.628Z,25.10
2022-09-26T01:56:27.876Z,29.80
2022-09-26T02:01:35.058Z,25.30
2022-09-26T02:07:09.621Z,23.30
2022-09-26T02:12:17.475Z,24.20
2022-09-26T02:17:27.812Z,23.50
2022-09-26T02:22:33.490Z,18.30
2022-09-26T02:27:35.457Z,19.50
2022-09-26T02:32:38.054Z,18.70
2022-09-26T02:37:40.337Z,17.20
2022-09-26T02:43:00.645Z,22.40
2022-09-26T02:48:17.780Z,22.20
2022-09-26T02:53:32.355Z,19.80
2022-09-26T02:59:06.898Z,20.00
2022-09-26T03:04:24.569Z,18.50
2022-09-26T03:09:28.779Z,19.30
2022-09-26T03:14:33.056Z,18.30
2022-09-26T03:19:43.435Z,22.60
2022-09-26T03:24:46.351Z,25.00
2022-09-26T03:29:48.174Z,20.10
2022-09-26T03:34:51.522Z,19.50
2022-09-26T03:39:53.657Z,19.40
2022-09-26T03:44:56.659Z,21.30
2022-09-26T03:49:59.871Z,26.30
2022-09-26T03:55:01.748Z,22.00
2022-09-26T04:00:07.379Z,20.80
2022-09-26T04:05:09.771Z,19.40
2022-09-26T04:10:12.036Z,25.50
2022-09-26T04:15:13.805Z,20.00
2022-09-26T04:20:15.663Z,31.90
2022-09-26T04:25:17.833Z,22.40
2022-09-26T04:30:19.898Z,27.60
2022-09-26T04:35:22.292Z,35.00
2022-09-26T04:40:24.236Z,32.20
2022-09-26T04:45:26.213Z,39.00
2022-09-26T04:50:29.467Z,30.70
2022-09-26T05:00:34.838Z,34.00
2022-09-26T05:05:37.353Z,36.30
2022-09-26T05:10:40.442Z,41.00
2022-09-26T05:15:43.035Z,30.80
2022-09-26T05:20:48.157Z,38.90
2022-09-26T05:26:08.806Z,28.00
2022-09-26T05:31:11.042Z,25.70
2022-09-26T05:36:13.671Z,28.10
2022-09-26T05:41:15.872Z,35.60
2022-09-26T05:46:17.690Z,31.80
2022-09-26T05:51:20.965Z,27.40
2022-09-26T05:56:23.452Z,25.90
2022-09-26T06:01:25.304Z,33.40
2022-09-26T06:06:27.509Z,21.50
2022-09-26T06:11:31.895Z,21.80
2022-09-26T06:16:34.426Z,24.60
2022-09-26T06:21:39.491Z,24.60
2022-09-26T06:26:41.257Z,20.90
2022-09-26T06:31:44.708Z,27.80
2022-09-26T06:36:48.392Z,24.50
2022-09-26T06:41:50.983Z,25.30
2022-09-26T06:46:52.835Z,26.10
2022-09-26T06:51:55.787Z,28.20
2022-09-26T07:07:06.981Z,25.50
2022-09-26T07:12:14.492Z,22.70
2022-09-26T07:17:19.048Z,22.40
2022-09-26T07:22:22.161Z,19.90
2022-09-26T07:27:25.631Z,21.40
2022-09-26T07:32:31.112Z,15.30
2022-09-26T07:37:33.336Z,15.10
2022-09-26T07:42:37.568Z,13.10
2022-09-26T07:47:58.698Z,10.90
2022-09-26T07:53:00.572Z,11.20
2022-09-26T07:58:03.070Z,10.10
2022-09-26T08:03:04.960Z,10.90
2022-09-26T08:08:07.639Z,9.90
2022-09-26T08:13:10.576Z,7.30
2022-09-26T08:18:14.068Z,6.60
2022-09-26T08:23:17.564Z,7.10
2022-09-26T08:28:19.446Z,5.80
2022-09-26T08:33:23.623Z,8.40
2022-09-26T08:38:27.317Z,6.40
2022-09-26T08:43:48.731Z,6.20
2022-09-26T08:49:04.091Z,6.40
2022-09-26T08:54:18.201Z,7.10
2022-09-26T08:59:35.423Z,6.00
2022-09-26T09:04:51.562Z,7.60
2022-09-26T09:10:01.412Z,7.00
2022-09-26T09:15:26.282Z,8.90
2022-09-26T09:20:56.768Z,6.90
2022-09-26T09:31:42.866Z,7.60
2022-09-26T09:36:49.460Z,7.60
2022-09-26T09:41:56.333Z,6.70
2022-09-26T09:46:58.659Z,7.40
2022-09-26T09:52:19.702Z,6.60
2022-09-26T09:57:44.115Z,6.90
2022-09-26T10:02:58.142Z,7.10
2022-09-26T10:08:00.658Z,6.20
2022-09-26T10:13:03.050Z,5.30
2022-09-26T10:18:25.733Z,6.80
2022-09-26T10:23:41.824Z,5.80
2022-09-26T10:28:52.008Z,7.40
2022-09-26T10:33:58.798Z,6.70
2022-09-26T10:39:34.864Z,7.10
2022-09-26T10:44:36.945Z,7.60
2022-09-26T10:49:50.508Z,7.80
2022-09-26T10:55:05.344Z,9.30
2022-09-26T11:00:08.901Z,8.40
2022-09-26T11:05:35.451Z,6.20
2022-09-26T11:10:41.729Z,5.30
2022-09-26T11:16:17.736Z,5.50
2022-09-26T11:21:29.278Z,5.20
2022-09-26T11:26:40.302Z,7.90
2022-09-26T11:31:43.458Z,7.10
2022-09-26T11:37:10.064Z,5.70
2022-09-26T11:42:48.619Z,5.10
2022-09-26T11:48:16.563Z,7.80
2022-09-26T11:53:52.208Z,10.70
2022-09-26T11:59:39.514Z,5.00
2022-09-26T12:05:01.048Z,7.30
2022-09-26T12:10:24.928Z,8.10
2022-09-26T12:15:37.775Z,5.50
2022-09-26T12:20:46.114Z,7.70
2022-09-26T12:26:01.363Z,7.30
2022-09-26T12:31:13.102Z,7.00
2022-09-26T12:36:40.680Z,6.00
2022-09-26T14:10:13.549Z,7.20
2022-09-26T14:15:25.604Z,7.30
2022-09-26T14:20:35.139Z,7.50
2022-09-26T14:25:48.577Z,9.90
2022-09-26T14:31:14.298Z,6.10
2022-09-26T14:36:25.369Z,7.30
2022-09-26T14:41:35.055Z,5.90
2022-09-26T14:46:42.452Z,10.30
2022-09-26T14:51:49.592Z,6.20
2022-09-26T14:57:05.899Z,9.30
2022-09-26T15:02:15.429Z,19.20
2022-09-26T15:07:25.688Z,19.90
2022-09-26T15:12:29.916Z,16.80
2022-09-26T15:17:39.804Z,11.80
2022-09-26T15:22:45.877Z,13.20
2022-09-26T15:28:00.370Z,13.50
2022-09-26T15:33:06.045Z,12.90
2022-09-26T15:38:14.143Z,11.70
2022-09-26T15:43:21.139Z,15.00
2022-09-26T15:48:27.564Z,11.80
2022-09-26T15:53:39.967Z,14.10
2022-09-26T15:58:52.570Z,49.70
2022-09-26T16:04:02.484Z,36.50
2022-09-26T16:09:08.616Z,30.60
2022-09-26T16:14:30.873Z,35.00
2022-09-26T16:19:36.499Z,34.00
2022-09-26T16:24:40.575Z,137.10
2022-09-26T16:29:52.067Z,86.30
2022-09-26T16:35:14.008Z,63.60
2022-09-26T16:40:21.094Z,183.40
2022-09-26T16:45:25.244Z,218.20
2022-09-26T16:50:34.287Z,137.50
2022-09-26T16:55:37.709Z,86.20
2022-09-26T17:01:07.167Z,80.80
2022-09-26T17:06:10.632Z,75.10
2022-09-26T17:11:16.646Z,96.90
2022-09-26T17:16:22.391Z,99.60
2022-09-26T17:21:26.535Z,64.90
2022-09-26T17:26:35.028Z,69.90
2022-09-26T17:31:39.806Z,105.30
2022-09-26T17:36:48.510Z,125.10
2022-09-26T17:41:55.395Z,78.30
2022-09-26T17:47:00.854Z,69.50
2022-09-26T17:52:12.686Z,70.90
2022-09-26T17:57:18.080Z,75.60
2022-09-26T18:02:38.211Z,130.90
2022-09-26T18:07:44.979Z,91.10
2022-09-26T18:12:58.407Z,73.20
2022-09-26T18:18:04.116Z,52.20
2022-09-26T18:23:17.423Z,48.20
2022-09-26T18:28:24.468Z,59.10
2022-09-26T18:33:29.762Z,84.40
2022-09-26T18:38:36.110Z,66.50
2022-09-26T18:43:43.109Z,45.10
2022-09-26T18:48:48.554Z,46.00
2022-09-26T18:53:53.070Z,49.50
2022-09-26T18:58:58.436Z,54.20
2022-09-26T19:04:16.893Z,80.40
2022-09-26T19:09:23.331Z,117.20
2022-09-26T19:14:31.409Z,77.80
2022-09-26T19:19:35.249Z,64.00
2022-09-26T19:24:44.618Z,61.70
2022-09-26T19:30:14.682Z,44.00
2022-09-26T19:35:24.076Z,46.30
2022-09-26T19:40:28.235Z,70.20
2022-09-26T19:45:37.171Z,37.90
2022-09-26T19:50:41.644Z,65.60
2022-09-26T19:55:48.876Z,55.30
2022-09-26T20:01:02.239Z,53.40
2022-09-26T20:06:26.839Z,53.00
2022-09-26T20:11:32.425Z,56.50
2022-09-26T20:16:42.999Z,60.10
2022-09-26T20:21:47.658Z,47.50
2022-09-26T20:26:53.008Z,51.00
2022-09-26T20:31:56.819Z,42.30
2022-09-26T20:37:00.875Z,71.20
2022-09-26T20:42:08.076Z,64.00
2022-09-26T20:47:17.955Z,65.20
2022-09-26T20:52:24.892Z,61.10
2022-09-26T20:57:30.517Z,72.70
2022-09-26T21:02:43.864Z,92.90
2022-09-26T21:07:50.922Z,48.60
2022-09-26T21:12:56.369Z,27.90
2022-09-26T21:18:01.864Z,21.20
2022-09-26T21:23:05.294Z,20.60
2022-09-26T21:28:28.722Z,13.90
2022-09-26T21:38:35.094Z,16.30
2022-09-26T21:43:43.625Z,18.00
2022-09-26T21:48:47.140Z,16.60
2022-09-26T21:54:00.998Z,14.40
2022-09-26T21:59:06.570Z,14.10
2022-09-26T22:04:09.770Z,15.10
2022-09-26T22:09:13.746Z,15.70
2022-09-26T22:14:17.111Z,18.40
2022-09-26T22:24:23.113Z,21.80
2022-09-26T22:29:26.321Z,24.80
2022-09-26T22:34:30.173Z,21.40
2022-09-26T22:39:33.249Z,23.00
2022-09-26T22:44:36.355Z,21.50
2022-09-26T22:49:39.465Z,18.40
2022-09-26T22:54:42.468Z,17.50
2022-09-26T22:59:45.671Z,18.90
2022-09-26T23:04:48.705Z,20.70
2022-09-26T23:09:52.143Z,21.40
2022-09-26T23:14:55.192Z,18.60
2022-09-26T23:19:58.300Z,18.80
2022-09-26T23:25:01.507Z,17.80
2022-09-26T23:30:07.211Z,20.20
2022-09-26T23:35:10.891Z,17.00
2022-09-26T23:40:14.276Z,19.20
2022-09-26T23:45:17.645Z,20.10
2022-09-26T23:50:21.367Z,16.30
2022-09-26T23:55:24.576Z,18.40
